createdAt,value
2023-01-29T00:01:32.714Z,7.90
2023-01-29T00:06:25.354Z,8.00
2023-01-29T00:11:18.224Z,6.90
2023-01-29T00:13:44.577Z,7.53
2023-01-29T00:18:41.323Z,8.52
2023-01-29T00:21:16.216Z,8.30
2023-01-29T00:23:43.005Z,8.50
2023-01-29T00:26:09.855Z,8.70
2023-01-29T00:28:36.530Z,8.82
2023-01-29T00:31:09.120Z,9.18
2023-01-29T00:33:35.821Z,9.43
2023-01-29T00:36:04.602Z,9.32
2023-01-29T00:38:33.622Z,8.57
2023-01-29T00:41:11.467Z,9.07
2023-01-29T00:43:37.821Z,8.65
2023-01-29T00:48:30.862Z,9.18
2023-01-29T00:50:57.270Z,8.65
2023-01-29T00:55:49.859Z,9.45
2023-01-29T00:58:16.228Z,8.75
2023-01-29T01:03:10.263Z,8.15
2023-01-29T01:05:36.594Z,8.65
2023-01-29T01:10:32.491Z,9.27
2023-01-29T01:13:04.195Z,8.43
2023-01-29T01:15:35.263Z,9.48
2023-01-29T01:18:02.906Z,9.20
2023-01-29T01:20:31.731Z,8.93
2023-01-29T01:22:58.063Z,9.40
2023-01-29T01:27:56.899Z,9.10
2023-01-29T01:30:23.841Z,10.10
2023-01-29T01:32:50.760Z,10.55
2023-01-29T01:35:17.211Z,10.27
2023-01-29T01:37:43.574Z,9.52
2023-01-29T01:42:47.177Z,9.88
2023-01-29T01:45:25.382Z,10.25
2023-01-29T01:47:58.902Z,10.68
2023-01-29T01:50:39.041Z,10.23
2023-01-29T01:53:15.073Z,10.35
2023-01-29T01:55:46.060Z,10.90
2023-01-29T01:58:21.256Z,9.80
2023-01-29T02:00:47.737Z,10.02
2023-01-29T02:03:14.290Z,10.55
2023-01-29T02:05:41.403Z,9.40
2023-01-29T02:08:08.321Z,10.18
2023-01-29T02:10:52.977Z,9.68
2023-01-29T02:13:19.397Z,9.98
2023-01-29T02:15:46.570Z,10.23
2023-01-29T02:18:15.027Z,10.40
2023-01-29T02:20:48.548Z,10.60
2023-01-29T02:23:17.821Z,10.85
2023-01-29T02:26:06.572Z,11.20
2023-01-29T02:28:38.144Z,9.93
2023-01-29T02:31:29.064Z,10.60
2023-01-29T02:34:10.893Z,10.40
2023-01-29T02:36:48.767Z,11.07
2023-01-29T02:39:36.447Z,11.23
2023-01-29T02:42:08.965Z,10.52
2023-01-29T02:44:56.035Z,10.05
2023-01-29T02:47:33.116Z,10.73
2023-01-29T02:50:25.299Z,10.77
2023-01-29T02:53:02.056Z,11.00
2023-01-29T02:55:41.831Z,11.10
2023-01-29T02:58:25.630Z,10.30
2023-01-29T03:00:54.081Z,10.95
2023-01-29T03:03:32.942Z,10.38
2023-01-29T03:06:20.718Z,10.75
2023-01-29T03:08:56.592Z,10.65
2023-01-29T03:11:23.464Z,11.02
2023-01-29T03:14:11.477Z,11.00
2023-01-29T03:16:51.479Z,10.93
2023-01-29T03:19:30.683Z,10.85
2023-01-29T03:21:59.828Z,11.02
2023-01-29T03:24:31.721Z,10.13
2023-01-29T03:27:01.919Z,10.30
2023-01-29T03:29:34.914Z,10.25
2023-01-29T03:32:01.794Z,10.23
2023-01-29T03:34:31.030Z,11.15
2023-01-29T03:37:07.267Z,10.93
2023-01-29T03:39:33.868Z,11.32
2023-01-29T03:42:16.587Z,11.00
2023-01-29T03:45:05.314Z,10.50
2023-01-29T03:48:04.626Z,10.48
2023-01-29T03:50:52.677Z,10.70
2023-01-29T03:53:30.492Z,10.85
2023-01-29T03:56:15.694Z,10.60
2023-01-29T03:59:02.555Z,10.40
2023-01-29T04:01:40.214Z,10.75
2023-01-29T04:04:17.576Z,10.52
2023-01-29T04:06:47.056Z,10.23
2023-01-29T04:09:27.718Z,10.52
2023-01-29T04:12:01.526Z,9.70
2023-01-29T04:14:28.891Z,10.07
2023-01-29T04:17:00.089Z,10.02
2023-01-29T04:19:27.458Z,11.15
2023-01-29T04:22:03.251Z,10.73
2023-01-29T04:24:30.044Z,11.27
2023-01-29T04:27:44.844Z,10.90
2023-01-29T04:30:47.110Z,10.88
2023-01-29T04:33:31.731Z,11.02
2023-01-29T04:36:13.422Z,10.98
2023-01-29T04:39:01.186Z,11.13
2023-01-29T04:41:36.227Z,10.68
2023-01-29T04:44:13.574Z,10.18
2023-01-29T04:49:29.535Z,10.48
2023-01-29T04:52:08.948Z,10.10
2023-01-29T04:54:54.999Z,10.82
2023-01-29T04:58:06.419Z,10.55
2023-01-29T05:00:44.284Z,10.15
2023-01-29T05:03:13.488Z,10.02
2023-01-29T05:05:42.734Z,11.48
2023-01-29T05:08:13.445Z,11.30
2023-01-29T05:10:40.354Z,10.60
2023-01-29T05:13:10.968Z,10.45
2023-01-29T05:15:41.001Z,10.55
2023-01-29T05:18:08.382Z,10.63
2023-01-29T05:20:38.606Z,11.02
2023-01-29T05:23:08.997Z,10.65
2023-01-29T05:25:35.464Z,10.63
2023-01-29T05:28:01.784Z,11.32
2023-01-29T05:32:54.346Z,11.32
2023-01-29T05:37:47.084Z,11.32
2023-01-29T05:42:39.778Z,11.35
2023-01-29T05:47:32.863Z,10.93
2023-01-29T05:52:25.541Z,10.82
2023-01-29T05:57:18.187Z,11.55
2023-01-29T06:02:11.001Z,11.57
2023-01-29T06:04:37.408Z,11.70
2023-01-29T06:09:30.262Z,11.27
2023-01-29T06:11:56.666Z,10.80
2023-01-29T06:16:49.411Z,11.52
2023-01-29T06:19:15.747Z,11.93
2023-01-29T06:24:08.779Z,11.63
2023-01-29T06:26:35.160Z,12.32
2023-01-29T06:31:38.174Z,12.60
2023-01-29T06:34:05.364Z,12.27
2023-01-29T06:36:31.753Z,12.77
2023-01-29T06:41:24.477Z,12.40
2023-01-29T06:46:17.727Z,10.15
2023-01-29T06:51:11.028Z,12.50
2023-01-29T06:53:38.736Z,11.30
2023-01-29T06:56:06.289Z,12.05
2023-01-29T06:58:33.588Z,11.70
2023-01-29T07:01:04.911Z,13.05
2023-01-29T07:03:31.437Z,12.35
2023-01-29T07:05:57.953Z,12.20
2023-01-29T07:08:24.364Z,12.98
2023-01-29T07:13:17.056Z,12.27
2023-01-29T07:18:09.911Z,12.23
2023-01-29T07:20:36.246Z,12.35
2023-01-29T07:23:02.555Z,12.50
2023-01-29T07:25:28.928Z,12.20
2023-01-29T07:30:22.010Z,13.02
2023-01-29T07:32:48.383Z,12.43
2023-01-29T07:37:41.056Z,10.48
2023-01-29T07:42:33.926Z,11.25
2023-01-29T07:45:00.298Z,10.73
2023-01-29T07:49:52.889Z,11.93
2023-01-29T07:54:48.576Z,9.38
2023-01-29T07:57:14.897Z,11.50
2023-01-29T07:59:41.257Z,11.77
2023-01-29T08:04:35.252Z,10.35
2023-01-29T08:07:01.650Z,10.60
2023-01-29T08:11:54.373Z,9.73
2023-01-29T08:14:20.745Z,12.25
2023-01-29T08:19:13.447Z,12.77
2023-01-29T08:24:06.369Z,12.18
2023-01-29T08:26:33.140Z,11.90
2023-01-29T08:28:59.536Z,11.82
2023-01-29T08:33:54.066Z,11.48
2023-01-29T08:36:20.447Z,11.68
2023-01-29T08:41:13.103Z,12.98
2023-01-29T08:46:06.614Z,12.07
2023-01-29T08:48:33.284Z,12.25
2023-01-29T08:51:01.358Z,13.50
2023-01-29T08:53:27.872Z,11.45
2023-01-29T08:55:54.441Z,12.73
2023-01-29T09:00:47.128Z,10.80
2023-01-29T09:03:13.987Z,11.77
2023-01-29T09:05:41.189Z,11.45
2023-01-29T09:08:08.988Z,12.40
2023-01-29T09:10:35.926Z,11.50
2023-01-29T09:13:02.326Z,11.55
2023-01-29T09:15:28.800Z,11.18
2023-01-29T09:17:55.167Z,11.20
2023-01-29T09:22:48.108Z,10.30
2023-01-29T09:25:15.153Z,11.60
2023-01-29T09:27:44.787Z,11.50
2023-01-29T09:30:11.763Z,11.40
2023-01-29T09:32:52.598Z,12.02
2023-01-29T09:35:19.825Z,9.48
2023-01-29T09:37:50.202Z,11.30
2023-01-29T09:40:26.648Z,11.82
2023-01-29T09:43:00.833Z,11.40
2023-01-29T09:45:29.208Z,12.27
2023-01-29T09:48:02.059Z,10.32
2023-01-29T09:50:39.428Z,11.80
2023-01-29T09:53:11.486Z,11.25
2023-01-29T09:55:45.567Z,11.35
2023-01-29T09:58:19.236Z,11.50
2023-01-29T10:00:57.585Z,10.75
2023-01-29T10:06:12.936Z,11.10
2023-01-29T10:09:01.129Z,11.38
2023-01-29T10:11:50.515Z,10.70
2023-01-29T10:14:22.535Z,10.15
2023-01-29T10:17:24.035Z,10.55
2023-01-29T10:20:34.367Z,9.93
2023-01-29T10:23:16.813Z,11.63
2023-01-29T10:25:45.584Z,11.13
2023-01-29T10:28:24.388Z,9.68
2023-01-29T10:30:56.195Z,11.27
2023-01-29T10:33:48.992Z,10.63
2023-01-29T10:36:26.215Z,10.38
2023-01-29T10:38:52.644Z,10.43
2023-01-29T10:41:45.217Z,11.27
2023-01-29T10:44:45.515Z,10.95
2023-01-29T10:47:22.050Z,10.57
2023-01-29T10:50:08.895Z,11.48
2023-01-29T10:52:46.174Z,11.23
2023-01-29T10:55:44.564Z,10.70
2023-01-29T10:58:33.995Z,10.70
2023-01-29T11:01:01.070Z,11.05
2023-01-29T11:03:30.449Z,11.55
2023-01-29T11:06:09.111Z,10.18
2023-01-29T11:08:45.909Z,11.20
2023-01-29T11:11:18.013Z,11.57
2023-01-29T11:13:57.179Z,10.93
2023-01-29T11:16:23.751Z,10.40
2023-01-29T11:18:58.667Z,10.95
2023-01-29T11:21:26.751Z,10.43
2023-01-29T11:24:13.959Z,11.98
2023-01-29T11:26:42.416Z,11.70
2023-01-29T11:29:26.945Z,10.93
2023-01-29T11:31:53.630Z,10.68
2023-01-29T11:34:24.527Z,10.50
2023-01-29T11:37:02.863Z,11.63
2023-01-29T11:39:31.499Z,11.02
2023-01-29T11:42:01.627Z,11.63
2023-01-29T11:44:41.441Z,11.40
2023-01-29T11:47:28.965Z,11.95
2023-01-29T11:49:57.976Z,11.77
2023-01-29T11:52:39.181Z,11.50
2023-01-29T11:55:14.097Z,12.05
2023-01-29T11:57:48.481Z,12.10
2023-01-29T12:00:26.099Z,12.75
2023-01-29T12:02:56.846Z,12.60
2023-01-29T12:05:25.676Z,12.60
2023-01-29T12:07:55.889Z,12.55
2023-01-29T12:10:37.058Z,12.93
2023-01-29T12:13:09.260Z,13.63
2023-01-29T12:15:37.283Z,12.82
2023-01-29T12:18:12.747Z,12.57
2023-01-29T12:20:52.011Z,12.80
2023-01-29T12:23:43.069Z,13.52
2023-01-29T12:26:14.852Z,13.38
2023-01-29T12:28:59.840Z,13.77
2023-01-29T12:31:45.032Z,13.13
2023-01-29T12:34:22.634Z,13.75
2023-01-29T12:37:00.942Z,12.43
2023-01-29T12:39:27.435Z,13.50
2023-01-29T12:42:00.991Z,13.60
2023-01-29T12:44:51.883Z,13.63
2023-01-29T12:47:26.607Z,12.40
2023-01-29T12:50:00.445Z,13.77
2023-01-29T12:52:42.408Z,14.07
2023-01-29T12:55:20.960Z,13.73
2023-01-29T12:57:56.034Z,14.50
2023-01-29T13:00:26.448Z,13.55
2023-01-29T13:03:07.709Z,13.27
2023-01-29T13:05:44.239Z,13.95
2023-01-29T13:08:35.752Z,14.63
2023-01-29T13:11:08.123Z,14.65
2023-01-29T13:13:41.260Z,13.95
2023-01-29T13:16:13.994Z,12.68
2023-01-29T13:18:45.850Z,14.32
2023-01-29T13:21:15.983Z,15.43
2023-01-29T13:23:48.603Z,14.65
2023-01-29T13:26:19.047Z,13.63
2023-01-29T13:28:46.557Z,13.50
2023-01-29T13:31:34.229Z,15.15
2023-01-29T13:34:24.790Z,13.70
2023-01-29T13:36:54.898Z,15.60
2023-01-29T13:39:34.277Z,14.45
2023-01-29T13:42:03.744Z,14.70
2023-01-29T13:44:37.587Z,14.95
2023-01-29T13:47:07.538Z,14.50
2023-01-29T13:49:38.962Z,15.90
2023-01-29T13:52:23.997Z,15.20
2023-01-29T13:54:55.519Z,14.63
2023-01-29T13:57:36.857Z,14.57
2023-01-29T14:00:05.381Z,15.63
2023-01-29T14:02:32.107Z,13.40
2023-01-29T14:05:29.551Z,16.67
2023-01-29T14:08:03.287Z,16.25
2023-01-29T14:10:31.647Z,15.77
2023-01-29T14:13:04.077Z,15.13
2023-01-29T14:15:33.312Z,15.38
2023-01-29T14:18:08.585Z,15.65
2023-01-29T14:20:48.750Z,14.40
2023-01-29T14:23:26.534Z,15.05
2023-01-29T14:25:53.159Z,15.60
2023-01-29T14:28:24.192Z,15.77
2023-01-29T14:30:51.665Z,14.07
2023-01-29T14:33:42.360Z,14.15
2023-01-29T14:36:13.169Z,14.05
2023-01-29T14:38:45.927Z,16.08
2023-01-29T14:41:24.589Z,13.50
2023-01-29T14:43:51.037Z,14.38
2023-01-29T14:46:44.329Z,14.43
2023-01-29T14:49:10.882Z,12.38
2023-01-29T14:51:41.688Z,14.15
2023-01-29T14:54:27.945Z,14.02
2023-01-29T14:57:04.013Z,14.68
2023-01-29T14:59:35.839Z,13.05
2023-01-29T15:02:15.599Z,14.75
2023-01-29T15:04:49.854Z,13.70
2023-01-29T15:07:32.145Z,13.68
2023-01-29T15:10:22.765Z,13.98
2023-01-29T15:12:56.936Z,14.32
2023-01-29T15:16:01.244Z,15.10
2023-01-29T15:18:42.480Z,10.98
2023-01-29T15:21:17.485Z,14.35
2023-01-29T15:23:44.718Z,13.40
2023-01-29T15:26:17.163Z,14.77
2023-01-29T15:28:47.218Z,12.57
2023-01-29T15:31:18.398Z,13.40
2023-01-29T15:33:48.051Z,13.07
2023-01-29T15:36:21.891Z,13.35
2023-01-29T15:38:48.518Z,13.07
2023-01-29T15:41:20.403Z,12.82
2023-01-29T15:43:57.174Z,13.63
2023-01-29T15:46:39.939Z,13.13
2023-01-29T15:49:15.904Z,14.02
2023-01-29T15:51:42.771Z,12.70
2023-01-29T15:54:15.924Z,12.90
2023-01-29T15:56:51.739Z,14.48
2023-01-29T15:59:22.882Z,12.93
2023-01-29T16:01:49.301Z,12.27
2023-01-29T16:04:24.288Z,14.70
2023-01-29T16:06:52.751Z,13.18
2023-01-29T16:09:23.213Z,13.50
2023-01-29T16:11:50.529Z,12.32
2023-01-29T16:14:20.498Z,12.70
2023-01-29T16:16:47.350Z,13.43
2023-01-29T16:19:28.389Z,13.27
2023-01-29T16:22:01.628Z,13.38
2023-01-29T16:24:30.620Z,15.30
2023-01-29T16:27:03.866Z,14.15
2023-01-29T16:29:32.850Z,14.32
2023-01-29T16:32:01.036Z,12.75
2023-01-29T16:34:37.793Z,14.60
2023-01-29T16:37:26.153Z,15.23
2023-01-29T16:39:52.848Z,14.35
2023-01-29T16:42:21.226Z,14.70
2023-01-29T16:45:27.838Z,12.25
2023-01-29T16:48:02.337Z,14.32
2023-01-29T16:50:40.573Z,15.20
2023-01-29T16:53:18.619Z,15.32
2023-01-29T16:55:47.755Z,16.02
2023-01-29T16:58:21.408Z,16.52
2023-01-29T17:00:53.060Z,16.17
2023-01-29T17:03:19.990Z,15.25
2023-01-29T17:05:46.950Z,15.15
2023-01-29T17:08:30.299Z,12.75
2023-01-29T17:10:56.905Z,14.13
2023-01-29T17:13:41.260Z,14.50
2023-01-29T17:18:53.633Z,15.05
2023-01-29T17:21:20.137Z,16.60
2023-01-29T17:23:46.543Z,15.48
2023-01-29T17:26:14.284Z,13.13
2023-01-29T17:28:41.543Z,14.45
2023-01-29T17:31:08.313Z,14.95
2023-01-29T17:33:37.349Z,15.60
2023-01-29T17:36:03.975Z,13.82
2023-01-29T17:38:30.321Z,15.27
2023-01-29T17:43:22.947Z,14.40
2023-01-29T17:48:27.177Z,15.48
2023-01-29T17:50:56.287Z,15.63
2023-01-29T17:53:24.853Z,16.05
2023-01-29T17:55:52.811Z,12.40
2023-01-29T18:00:48.045Z,15.45
2023-01-29T18:03:15.373Z,15.50
2023-01-29T18:05:43.628Z,15.13
2023-01-29T18:08:17.292Z,16.30
2023-01-29T18:10:44.587Z,15.23
2023-01-29T18:13:11.109Z,15.60
2023-01-29T18:15:37.709Z,15.02
2023-01-29T18:18:04.891Z,14.32
2023-01-29T18:20:32.143Z,14.02
2023-01-29T18:22:58.489Z,15.65
2023-01-29T18:27:52.206Z,14.38
2023-01-29T18:30:18.630Z,15.20
2023-01-29T18:35:11.328Z,11.93
2023-01-29T18:40:04.320Z,14.27
2023-01-29T18:42:31.863Z,14.82
2023-01-29T18:44:58.213Z,15.00
2023-01-29T18:49:50.913Z,12.98
2023-01-29T18:54:44.149Z,12.35
2023-01-29T18:57:14.153Z,13.07
2023-01-29T18:59:56.834Z,13.25
2023-01-29T19:02:23.436Z,12.73
2023-01-29T19:07:16.266Z,14.43
2023-01-29T19:09:42.979Z,13.38
2023-01-29T19:12:09.316Z,14.25
2023-01-29T19:17:01.956Z,13.07
2023-01-29T19:19:28.599Z,13.07
2023-01-29T19:21:55.146Z,12.93
2023-01-29T19:24:21.723Z,11.93
2023-01-29T19:26:48.725Z,12.48
2023-01-29T19:29:15.603Z,13.50
2023-01-29T19:31:42.398Z,13.27
2023-01-29T19:34:08.845Z,14.13
2023-01-29T19:36:36.307Z,12.75
2023-01-29T19:39:03.129Z,12.07
2023-01-29T19:41:29.516Z,14.30
2023-01-29T19:43:55.874Z,13.15
2023-01-29T19:48:48.580Z,12.75
2023-01-29T19:51:15.029Z,10.73
2023-01-29T19:53:42.432Z,15.02
2023-01-29T19:56:12.453Z,14.18
2023-01-29T19:58:39.103Z,14.52
2023-01-29T20:01:12.322Z,12.27
2023-01-29T20:03:38.760Z,11.35
2023-01-29T20:06:06.215Z,14.05
2023-01-29T20:08:33.429Z,14.50
2023-01-29T20:10:59.776Z,14.43
2023-01-29T20:15:53.222Z,13.82
2023-01-29T20:18:19.840Z,13.82
2023-01-29T20:20:48.481Z,12.48
2023-01-29T20:23:27.999Z,14.48
2023-01-29T20:26:02.529Z,13.35
2023-01-29T20:28:28.939Z,14.02
2023-01-29T20:30:55.427Z,14.38
2023-01-29T20:33:22.289Z,14.38
2023-01-29T20:36:00.042Z,15.10
2023-01-29T20:38:27.100Z,14.85
2023-01-29T20:40:53.488Z,14.63
2023-01-29T20:43:19.842Z,15.35
2023-01-29T20:48:12.776Z,14.65
2023-01-29T20:50:39.380Z,13.55
2023-01-29T20:55:32.105Z,15.35
2023-01-29T20:58:06.470Z,15.57
2023-01-29T21:00:33.432Z,13.95
2023-01-29T21:02:59.952Z,15.73
2023-01-29T21:05:26.395Z,15.45
2023-01-29T21:07:52.749Z,15.57
2023-01-29T21:12:45.825Z,16.10
2023-01-29T21:17:38.719Z,16.83
2023-01-29T21:20:05.554Z,15.15
2023-01-29T21:22:31.884Z,16.75
2023-01-29T21:27:25.220Z,15.63
2023-01-29T21:29:51.606Z,14.68
2023-01-29T21:32:17.972Z,15.13
2023-01-29T21:37:10.672Z,15.70
2023-01-29T21:39:37.102Z,16.48
2023-01-29T21:42:03.679Z,16.42
2023-01-29T21:44:30.646Z,17.63
2023-01-29T21:46:57.040Z,16.05
2023-01-29T21:49:23.737Z,17.77
2023-01-29T21:51:50.232Z,17.02
2023-01-29T21:54:16.621Z,15.82
2023-01-29T21:56:42.940Z,16.98
2023-01-29T22:01:38.678Z,15.75
2023-01-29T22:04:05.501Z,17.38
2023-01-29T22:06:31.848Z,15.90
2023-01-29T22:08:58.169Z,16.10
2023-01-29T22:11:24.530Z,16.15
2023-01-29T22:16:17.137Z,15.50
2023-01-29T22:18:43.499Z,16.92
2023-01-29T22:23:36.093Z,15.98
2023-01-29T22:28:29.696Z,16.15
2023-01-29T22:33:26.688Z,15.82
2023-01-29T22:38:20.321Z,16.42
2023-01-29T22:40:51.114Z,16.98
2023-01-29T22:43:17.690Z,17.15
2023-01-29T22:45:44.077Z,17.52
2023-01-29T22:50:38.474Z,16.33
2023-01-29T22:53:05.751Z,16.45
2023-01-29T22:55:32.992Z,15.77
2023-01-29T22:57:59.820Z,16.80
2023-01-29T23:00:26.337Z,17.42
2023-01-29T23:02:52.709Z,18.20
2023-01-29T23:07:45.669Z,18.33
2023-01-29T23:10:15.820Z,17.23
2023-01-29T23:12:42.415Z,18.23
2023-01-29T23:15:09.094Z,18.05
2023-01-29T23:17:35.439Z,17.60
2023-01-29T23:22:28.152Z,17.00
2023-01-29T23:24:54.504Z,16.85
2023-01-29T23:29:48.362Z,17.17
2023-01-29T23:32:20.528Z,17.50
2023-01-29T23:34:47.357Z,17.27
2023-01-29T23:37:13.912Z,17.08
2023-01-29T23:39:40.304Z,17.10
2023-01-29T23:44:32.956Z,17.02
2023-01-29T23:49:25.695Z,18.15
2023-01-29T23:54:18.470Z,17.10
2023-01-29T23:56:45.180Z,16.08
2023-01-29T23:59:12.284Z,18.60
